Impacts METAR Board
IDs:

KDEN - Denver Intl, CO, US

Updated at: 0600 UTC 28 Sep 2022
Potential Impact None Slight Moderate High
Time 27/18Z 27/19Z 27/20Z 27/21Z 27/22Z 27/23Z 28/00Z 28/01Z 28/02Z 28/03Z 28/04Z 28/05Z 28/06Z
Temp74 79 80 81 79 78 73 69 69 67 67 66 64
Dewpt36 35 36 35 36 40 39 39 40 41 41 42 42
Altim30.32 30.30 30.29 30.28 30.28 30.30 30.31 30.32 30.34 30.34 30.34 30.35 30.35
VIS10 10 10 10 10 10 10 10 10 10 10 10 10
CIG200 200 220 220 120 140 120 120 100 130 120 160 130
CoverBKNBKNBKNBKNBKNBKNBKNBKNBKNBKNBKNBKNBKN
FltCatVFRVFRVFRVFRVFRVFRVFRVFRVFRVFRVFRVFRVFR
WX--------------------------
WDir022028025024010220200230200210200190
WSpd0 5 8 10 9 10 17 7 7 4 10 11 8
WGst-- -- 16 -- -- -- -- -- -- -- -- -- --
Raw hourly METARs
KDEN 271753Z 00000KT 10SM FEW090 SCT140 BKN200 23/02 A3032 RMK AO2 SLP201 T02330022 10239 20117 58002
KDEN 271853Z 22005KT 10SM FEW090 SCT140 BKN200 26/02 A3030 RMK AO2 SLP191 T02610017
KDEN 271953Z 28008G16KT 10SM FEW090 SCT120 BKN220 27/02 A3029 RMK AO2 SLP189 T02670022
KDEN 272053Z 25010KT 10SM FEW090 SCT120 BKN220 27/02 A3028 RMK AO2 SLP183 T02720017 56012
KDEN 272153Z 24009KT 10SM FEW090 BKN120 BKN180 26/02 A3028 RMK AO2 SLP187 CB DSNT SE MOV SE T02610022
KDEN 272253Z COR 01010KT 10SM SCT090 BKN140 BKN190 26/04 A3030 RMK AO2 SLP194 VIRGA W CB DSNT SE MOV SE T02560044
KDEN 272353Z 22017KT 10SM SCT090 BKN120 BKN190 23/04 A3031 RMK AO2 SLP201 VIRGA W CB DSNT SE MOV SE T02280039 10278 20228 53006
KDEN 280053Z 20007KT 10SM SCT090 BKN120 BKN190 21/04 A3032 RMK AO2 SLP211 VIRGA N T02060039
KDEN 280153Z 23007KT 10SM BKN100 BKN180 21/04 A3034 RMK AO2 SLP216 T02060044
KDEN 280253Z 20004KT 10SM FEW090 BKN130 BKN170 19/05 A3034 RMK AO2 SLP211 T01940050 51010
KDEN 280353Z 21010KT 10SM BKN120 BKN180 19/05 A3034 RMK AO2 SLP209 T01940050
KDEN 280453Z 20011KT 10SM SCT120 BKN160 19/06 A3035 RMK AO2 SLP208 T01890056
KDEN 280553Z 19008KT 10SM BKN130 BKN200 18/06 A3035 RMK AO2 SLP206 T01780056 10228 20167 50002



Page loaded:  06:56 UTC  |   11:56 PM Pacific  |   12:56 AM Mountain  |   01:56 AM Central  |   02:56 AM Eastern

 

ADVISORIES

FORECASTS

FORECASTS

OBSERVATIONS

USER TOOLS

ABOUT US